createdAt,value
2022-09-28T00:01:25.724Z,88.63
2022-09-28T00:03:57.614Z,88.97
2022-09-28T00:06:30.002Z,88.85
2022-09-28T00:08:58.838Z,88.72
2022-09-28T00:11:28.401Z,88.77
2022-09-28T00:14:00.207Z,88.70
2022-09-28T00:16:31.632Z,88.72
2022-09-28T00:19:00.557Z,88.64
2022-09-28T00:21:31.119Z,88.65
2022-09-28T00:24:13.107Z,88.68
2022-09-28T00:26:54.305Z,88.86
2022-09-28T00:29:24.323Z,88.80
2022-09-28T00:32:00.015Z,88.75
2022-09-28T00:34:33.942Z,88.93
2022-09-28T00:37:03.993Z,89.03
2022-09-28T00:39:32.382Z,88.92
2022-09-28T00:42:00.494Z,88.80
2022-09-28T00:44:37.245Z,89.10
2022-09-28T00:47:39.289Z,88.97
2022-09-28T00:50:14.243Z,88.84
2022-09-28T00:52:50.510Z,88.89
2022-09-28T00:55:25.388Z,88.94
2022-09-28T00:57:57.091Z,88.85
2022-09-28T01:00:25.728Z,88.77
2022-09-28T01:02:54.307Z,88.81
2022-09-28T01:05:24.514Z,88.81
2022-09-28T01:07:53.693Z,88.80
2022-09-28T01:10:21.813Z,88.67
2022-09-28T01:12:49.810Z,88.53
2022-09-28T01:15:22.149Z,88.60
2022-09-28T01:17:56.702Z,88.41
2022-09-28T01:20:42.512Z,88.55
2022-09-28T01:23:41.926Z,88.62
2022-09-28T01:26:38.507Z,88.38
2022-09-28T01:29:18.864Z,88.49
2022-09-28T01:31:57.115Z,88.68
2022-09-28T01:34:34.116Z,88.69
2022-09-28T01:37:06.558Z,88.79
2022-09-28T01:39:42.113Z,88.68
2022-09-28T01:42:20.931Z,88.78
2022-09-28T01:44:52.441Z,89.01
2022-09-28T01:47:24.702Z,89.12
2022-09-28T01:50:01.534Z,89.18
2022-09-28T01:52:36.483Z,88.93
2022-09-28T01:55:19.247Z,89.23
2022-09-28T01:58:17.586Z,89.21
2022-09-28T02:00:51.020Z,89.26
2022-09-28T02:03:24.636Z,89.21
2022-09-28T02:06:08.832Z,89.41
2022-09-28T02:08:44.495Z,89.31
2022-09-28T02:11:18.520Z,89.26
2022-09-28T02:14:01.187Z,89.36
2022-09-28T02:16:36.067Z,89.45
2022-09-28T02:19:05.767Z,89.58
2022-09-28T02:21:41.037Z,89.40
2022-09-28T02:24:47.031Z,89.66
2022-09-28T02:27:25.197Z,89.67
2022-09-28T02:29:53.558Z,89.59
2022-09-28T02:32:21.754Z,89.82
2022-09-28T02:34:49.813Z,89.88
2022-09-28T02:37:18.102Z,89.54
2022-09-28T02:39:46.084Z,89.60
2022-09-28T02:42:55.248Z,89.58
2022-09-28T02:45:32.080Z,89.74
2022-09-28T02:48:12.138Z,89.69
2022-09-28T02:50:55.494Z,89.56
2022-09-28T02:53:35.507Z,89.58
2022-09-28T02:56:27.169Z,89.69
2022-09-28T02:59:15.554Z,89.67
2022-09-28T03:02:06.231Z,89.50
2022-09-28T03:05:01.483Z,89.77
2022-09-28T03:07:39.676Z,89.59
2022-09-28T03:10:31.452Z,89.73
2022-09-28T03:13:00.739Z,89.73
2022-09-28T03:15:34.508Z,89.86
2022-09-28T03:18:03.283Z,90.02
2022-09-28T03:20:33.608Z,89.87
2022-09-28T03:25:50.924Z,89.87
2022-09-28T03:28:19.702Z,89.82
2022-09-28T03:30:50.131Z,89.96
2022-09-28T03:33:19.817Z,89.76
2022-09-28T03:35:49.522Z,89.68
2022-09-28T03:38:18.765Z,89.60
2022-09-28T03:40:58.008Z,89.63
2022-09-28T03:43:28.079Z,89.76
2022-09-28T03:46:00.575Z,89.67
2022-09-28T03:48:33.215Z,89.44
2022-09-28T03:51:04.340Z,89.45
2022-09-28T03:53:33.688Z,89.58
2022-09-28T03:56:07.444Z,89.38
2022-09-28T03:58:35.713Z,89.40
2022-09-28T04:01:14.134Z,89.35
2022-09-28T04:03:46.907Z,89.44
2022-09-28T04:06:15.012Z,89.38
2022-09-28T04:08:43.549Z,89.40
2022-09-28T04:11:12.564Z,89.40
2022-09-28T04:13:41.239Z,89.39
2022-09-28T04:16:12.160Z,89.53
2022-09-28T04:18:44.563Z,89.41
2022-09-28T04:21:41.746Z,89.43
2022-09-28T04:24:13.533Z,89.52
2022-09-28T04:26:41.616Z,89.63
2022-09-28T04:29:17.627Z,89.55
2022-09-28T04:32:00.201Z,89.61
2022-09-28T04:34:41.874Z,89.54
2022-09-28T04:37:12.709Z,89.66
2022-09-28T04:39:44.964Z,89.64
2022-09-28T04:42:14.663Z,89.65
2022-09-28T04:44:43.135Z,89.66
2022-09-28T04:47:11.161Z,89.57
2022-09-28T04:49:54.460Z,89.66
2022-09-28T04:52:29.271Z,89.75
2022-09-28T04:54:57.209Z,89.70
2022-09-28T04:57:26.947Z,89.97
2022-09-28T04:59:55.894Z,89.99
2022-09-28T05:02:24.846Z,89.97
2022-09-28T05:05:11.371Z,89.97
2022-09-28T05:08:08.668Z,90.06
2022-09-28T05:10:37.179Z,89.82
2022-09-28T05:13:12.258Z,89.89
2022-09-28T05:15:42.938Z,89.97
2022-09-28T05:18:11.190Z,90.00
2022-09-28T05:21:02.483Z,90.01
2022-09-28T05:23:30.693Z,89.91
2022-09-28T05:26:02.055Z,89.94
2022-09-28T05:28:32.862Z,89.99
2022-09-28T05:31:19.705Z,90.09
2022-09-28T05:33:58.654Z,89.90
2022-09-28T05:36:28.094Z,90.09
2022-09-28T05:38:56.926Z,90.23
2022-09-28T05:41:25.260Z,90.23
2022-09-28T05:43:55.061Z,90.21
2022-09-28T05:46:24.031Z,90.28
2022-09-28T05:48:52.793Z,90.16
2022-09-28T05:51:21.862Z,90.09
2022-09-28T05:53:49.889Z,89.85
2022-09-28T05:56:19.375Z,89.61
2022-09-28T05:58:47.441Z,89.53
2022-09-28T06:01:21.311Z,89.33
2022-09-28T06:03:50.498Z,89.36
2022-09-28T06:06:19.822Z,89.39
2022-09-28T06:08:48.579Z,89.40
2022-09-28T06:11:37.139Z,89.23
2022-09-28T06:14:13.886Z,89.23
2022-09-28T06:16:43.939Z,89.19
2022-09-28T06:19:14.873Z,89.12
2022-09-28T06:22:01.740Z,89.12
2022-09-28T06:24:31.957Z,89.17
2022-09-28T06:27:00.134Z,89.35
2022-09-28T06:29:29.354Z,89.29
2022-09-28T06:31:58.850Z,89.51
2022-09-28T06:34:28.147Z,89.39
2022-09-28T06:36:56.943Z,89.22
2022-09-28T06:39:24.961Z,89.13
2022-09-28T06:41:52.988Z,89.17
2022-09-28T06:44:22.086Z,89.19
2022-09-28T06:47:28.779Z,89.29
2022-09-28T06:50:12.508Z,89.26
2022-09-28T06:53:01.694Z,89.18
2022-09-28T06:55:51.689Z,89.37
2022-09-28T06:58:20.973Z,89.38
2022-09-28T07:00:51.974Z,89.24
2022-09-28T07:03:21.792Z,89.33
2022-09-28T07:06:02.179Z,89.73
2022-09-28T07:08:55.504Z,89.90
2022-09-28T07:12:10.919Z,89.64
2022-09-28T07:14:51.157Z,89.46
2022-09-28T07:17:19.389Z,89.39
2022-09-28T07:19:52.843Z,89.32
2022-09-28T07:22:32.420Z,89.10
2022-09-28T07:25:04.245Z,88.86
2022-09-28T07:27:48.202Z,88.47
2022-09-28T07:30:36.609Z,88.42
2022-09-28T07:33:12.623Z,88.20
2022-09-28T07:35:53.492Z,88.53
2022-09-28T07:38:23.248Z,88.48
2022-09-28T07:41:10.351Z,88.57
2022-09-28T07:43:41.612Z,88.15
2022-09-28T07:46:12.460Z,87.89
2022-09-28T07:48:46.152Z,87.24
2022-09-28T07:51:33.670Z,87.12
2022-09-28T07:54:22.147Z,87.14
2022-09-28T07:57:29.319Z,85.77
2022-09-28T08:00:34.290Z,86.56
2022-09-28T08:03:03.499Z,85.83
2022-09-28T08:05:35.971Z,86.33
2022-09-28T08:08:04.074Z,85.71
2022-09-28T08:10:32.070Z,85.88
2022-09-28T08:13:08.580Z,85.94
2022-09-28T08:16:02.854Z,85.66
2022-09-28T08:18:40.453Z,85.71
2022-09-28T08:21:29.305Z,85.63
2022-09-28T08:23:57.681Z,84.58
2022-09-28T08:26:26.044Z,83.37
2022-09-28T08:28:54.311Z,82.37
2022-09-28T08:31:42.521Z,82.43
2022-09-28T08:34:22.632Z,82.68
2022-09-28T08:37:10.868Z,82.88
2022-09-28T08:39:57.613Z,82.72
2022-09-28T08:42:46.036Z,83.00
2022-09-28T08:45:52.910Z,83.25
2022-09-28T08:49:25.773Z,82.95
2022-09-28T08:52:29.295Z,83.04
2022-09-28T08:55:38.087Z,82.84
2022-09-28T08:58:24.398Z,82.71
2022-09-28T09:00:54.537Z,82.97
2022-09-28T09:03:34.187Z,82.49
2022-09-28T09:06:55.624Z,82.72
2022-09-28T09:10:30.367Z,82.77
2022-09-28T09:13:18.433Z,82.48
2022-09-28T09:16:06.456Z,82.57
2022-09-28T09:19:17.572Z,82.12
2022-09-28T09:22:32.347Z,82.44
2022-09-28T09:25:21.013Z,81.11
2022-09-28T09:27:57.811Z,81.15
2022-09-28T09:30:36.629Z,79.30
2022-09-28T09:33:35.882Z,80.38
2022-09-28T09:36:28.228Z,80.94
2022-09-28T09:39:56.030Z,80.51
2022-09-28T09:42:49.925Z,80.69
2022-09-28T09:45:53.819Z,80.76
2022-09-28T09:49:25.258Z,79.86
2022-09-28T09:52:02.202Z,79.18
2022-09-28T09:54:39.589Z,79.93
2022-09-28T09:57:17.281Z,76.51
2022-09-28T10:00:02.180Z,77.13
2022-09-28T10:02:45.217Z,77.01
2022-09-28T10:05:36.398Z,74.93
2022-09-28T10:08:16.155Z,75.00
2022-09-28T10:11:07.734Z,73.74
2022-09-28T10:13:37.388Z,74.81
2022-09-28T10:16:10.448Z,73.80
2022-09-28T10:18:49.753Z,74.54
2022-09-28T10:21:42.425Z,75.47
2022-09-28T10:24:45.760Z,76.21
2022-09-28T10:27:17.225Z,75.42
2022-09-28T10:30:26.187Z,75.38
2022-09-28T10:32:59.594Z,76.12
2022-09-28T10:35:42.509Z,76.12
2022-09-28T10:38:11.738Z,75.47
2022-09-28T10:40:59.497Z,74.88
2022-09-28T10:43:38.770Z,74.01
2022-09-28T10:46:14.068Z,74.37
2022-09-28T10:48:48.434Z,74.44
2022-09-28T10:51:18.161Z,73.62
2022-09-28T10:54:00.769Z,72.68
2022-09-28T10:56:46.682Z,72.97
2022-09-28T10:59:30.631Z,72.16
2022-09-28T11:02:34.907Z,71.35
2022-09-28T11:05:24.875Z,71.61
2022-09-28T11:07:57.153Z,70.09
2022-09-28T11:10:32.981Z,71.10
2022-09-28T11:13:10.263Z,71.19
2022-09-28T11:15:43.224Z,71.11
2022-09-28T11:18:24.991Z,71.67
2022-09-28T11:21:12.936Z,71.43
2022-09-28T11:24:05.984Z,70.86
2022-09-28T11:26:42.057Z,70.72
2022-09-28T11:29:41.794Z,70.72
2022-09-28T11:32:43.772Z,71.14
2022-09-28T11:35:32.230Z,70.51
2022-09-28T11:38:20.517Z,69.85
2022-09-28T11:41:29.362Z,69.41
2022-09-28T11:44:17.759Z,68.83
2022-09-28T11:47:04.469Z,69.76
2022-09-28T11:49:40.535Z,69.34
2022-09-28T11:52:32.038Z,68.67
2022-09-28T11:55:09.678Z,69.41
2022-09-28T11:57:43.151Z,68.15
2022-09-28T12:00:16.717Z,69.19
2022-09-28T12:03:31.710Z,69.49
2022-09-28T12:06:04.079Z,69.58
2022-09-28T12:08:41.750Z,69.04
2022-09-28T12:11:39.102Z,69.33
2022-09-28T12:14:23.595Z,68.76
2022-09-28T12:17:19.996Z,69.14
2022-09-28T12:19:53.535Z,68.69
2022-09-28T12:22:30.167Z,68.20
2022-09-28T12:24:59.530Z,69.28
2022-09-28T12:27:45.335Z,68.29
2022-09-28T12:30:21.481Z,68.40
2022-09-28T12:33:11.820Z,67.84
2022-09-28T12:35:45.834Z,68.33
2022-09-28T12:38:35.862Z,69.05
2022-09-28T12:41:16.852Z,68.98
2022-09-28T12:44:32.895Z,69.18
2022-09-28T12:47:15.612Z,69.00
2022-09-28T12:53:04.455Z,68.26
2022-09-28T12:55:47.538Z,68.89
2022-09-28T12:58:21.585Z,68.53
2022-09-28T13:00:49.561Z,68.40
2022-09-28T13:03:36.833Z,68.50
2022-09-28T13:06:32.740Z,68.07
2022-09-28T13:09:20.315Z,67.51
2022-09-28T13:11:58.953Z,66.71
2022-09-28T13:14:58.815Z,67.91
2022-09-28T13:17:29.539Z,66.59
2022-09-28T13:20:25.441Z,67.17
2022-09-28T13:23:33.288Z,67.39
2022-09-28T13:26:26.368Z,67.99
2022-09-28T13:29:02.742Z,67.94
2022-09-28T13:31:36.068Z,67.78
2022-09-28T13:34:12.373Z,66.98
2022-09-28T13:36:44.609Z,67.12
2022-09-28T13:39:45.950Z,67.06
2022-09-28T13:42:46.019Z,67.59
2022-09-28T13:45:27.486Z,67.15
2022-09-28T13:48:21.943Z,67.32
2022-09-28T13:51:02.151Z,66.89
2022-09-28T13:53:30.086Z,67.54
2022-09-28T13:56:26.533Z,66.98
2022-09-28T13:59:17.856Z,67.71
2022-09-28T14:01:55.761Z,67.84
2022-09-28T14:04:47.633Z,67.56
2022-09-28T14:07:21.298Z,67.11
2022-09-28T14:10:16.415Z,67.43
2022-09-28T14:12:51.610Z,67.68
2022-09-28T14:15:45.081Z,67.78
2022-09-28T14:18:32.894Z,68.16
2022-09-28T14:21:19.580Z,68.34
2022-09-28T14:23:59.093Z,67.58
2022-09-28T14:26:53.340Z,67.88
2022-09-28T14:29:28.638Z,67.61
2022-09-28T14:32:04.543Z,68.05
2022-09-28T14:34:45.510Z,68.05
2022-09-28T14:37:40.417Z,68.25
2022-09-28T14:40:47.174Z,67.99
2022-09-28T14:43:24.918Z,68.25
2022-09-28T14:46:10.992Z,68.46
2022-09-28T14:48:43.448Z,68.45
2022-09-28T14:51:26.934Z,68.43
2022-09-28T14:54:00.430Z,68.59
2022-09-28T14:56:32.859Z,68.57
2022-09-28T14:59:01.698Z,68.66
2022-09-28T15:01:30.292Z,68.86
2022-09-28T15:04:01.993Z,68.85
2022-09-28T15:06:50.340Z,68.90
2022-09-28T15:09:28.600Z,69.15
2022-09-28T15:12:03.271Z,69.14
2022-09-28T15:14:33.276Z,69.20
2022-09-28T15:17:09.156Z,69.40
2022-09-28T15:19:37.354Z,69.56
2022-09-28T15:22:14.040Z,69.49
2022-09-28T15:24:45.389Z,69.56
2022-09-28T15:27:19.190Z,69.71
2022-09-28T15:30:00.900Z,69.94
2022-09-28T15:32:30.428Z,70.15
2022-09-28T15:35:09.247Z,70.28
2022-09-28T15:37:40.701Z,70.51
2022-09-28T15:40:14.005Z,70.59
2022-09-28T15:42:42.693Z,70.75
2022-09-28T15:45:13.825Z,70.81
2022-09-28T15:47:43.744Z,71.16
2022-09-28T15:50:22.857Z,70.96
2022-09-28T15:52:59.250Z,71.45
2022-09-28T15:55:30.595Z,71.41
2022-09-28T15:58:17.388Z,71.27
2022-09-28T16:00:46.949Z,71.33
2022-09-28T16:03:17.949Z,71.26
2022-09-28T16:05:49.165Z,71.58
2022-09-28T16:08:24.892Z,71.63
2022-09-28T16:10:56.561Z,71.65
2022-09-28T16:13:25.024Z,72.02
2022-09-28T16:16:00.421Z,71.88
2022-09-28T16:18:30.260Z,72.36
2022-09-28T16:21:18.426Z,71.89
2022-09-28T16:23:51.063Z,72.19
2022-09-28T16:26:32.263Z,72.40
2022-09-28T16:29:01.604Z,72.26
2022-09-28T16:31:34.611Z,72.29
2022-09-28T16:34:20.315Z,72.49
2022-09-28T16:36:49.350Z,72.62
2022-09-28T16:39:18.528Z,72.60
2022-09-28T16:41:52.258Z,72.59
2022-09-28T16:44:28.660Z,72.75
2022-09-28T16:46:57.618Z,72.67
2022-09-28T16:49:26.882Z,72.68
2022-09-28T16:51:54.903Z,72.96
2022-09-28T16:54:43.280Z,73.07
2022-09-28T16:57:12.553Z,73.12
2022-09-28T16:59:40.639Z,73.35
2022-09-28T17:02:46.295Z,73.21
2022-09-28T17:05:17.995Z,73.40
2022-09-28T17:07:51.193Z,73.07
2022-09-28T17:10:45.038Z,73.41
2022-09-28T17:13:27.144Z,73.66
2022-09-28T17:15:55.147Z,73.43
2022-09-28T17:18:23.330Z,73.48
2022-09-28T17:20:52.526Z,73.68
2022-09-28T17:23:21.423Z,73.81
2022-09-28T17:25:49.404Z,73.28
2022-09-28T17:28:25.560Z,73.52
2022-09-28T17:30:53.670Z,73.83
2022-09-28T17:33:21.915Z,73.72
2022-09-28T17:35:51.672Z,73.76
2022-09-28T17:38:19.697Z,73.79
2022-09-28T17:40:48.269Z,74.11
2022-09-28T17:43:16.402Z,74.05
2022-09-28T17:45:46.314Z,74.36
2022-09-28T17:48:15.902Z,74.38
2022-09-28T17:50:47.620Z,74.27
2022-09-28T17:53:15.760Z,74.42
2022-09-28T17:55:44.015Z,74.21
2022-09-28T17:58:20.298Z,74.43
2022-09-28T18:00:49.198Z,74.47
2022-09-28T18:03:21.572Z,74.27
2022-09-28T18:05:52.251Z,74.69
2022-09-28T18:08:21.205Z,74.66
2022-09-28T18:10:50.179Z,74.77
2022-09-28T18:13:18.037Z,74.64
2022-09-28T18:15:46.245Z,74.79
2022-09-28T18:18:17.571Z,74.78
2022-09-28T18:20:45.499Z,74.68
2022-09-28T18:23:13.615Z,74.78
2022-09-28T18:25:43.211Z,74.81
2022-09-28T18:28:12.239Z,74.94
2022-09-28T18:30:41.404Z,74.67
2022-09-28T18:33:09.956Z,74.83
2022-09-28T18:35:37.964Z,74.81
2022-09-28T18:38:06.790Z,74.97
2022-09-28T18:40:35.169Z,74.64
2022-09-28T18:43:03.725Z,75.12
2022-09-28T18:45:33.259Z,74.70
2022-09-28T18:48:01.381Z,74.70
2022-09-28T18:50:29.511Z,74.86
2022-09-28T18:53:11.483Z,74.99
2022-09-28T18:55:41.472Z,75.21
2022-09-28T18:58:11.414Z,75.07
2022-09-28T19:00:40.314Z,75.11
2022-09-28T19:03:11.318Z,75.06
2022-09-28T19:05:43.129Z,75.11
2022-09-28T19:08:11.200Z,75.32
2022-09-28T19:10:41.866Z,75.62
2022-09-28T19:13:09.865Z,75.45
2022-09-28T19:15:37.914Z,75.44
2022-09-28T19:18:05.955Z,75.57
2022-09-28T19:20:34.168Z,75.36
2022-09-28T19:23:02.725Z,75.64
2022-09-28T19:25:31.052Z,75.54
2022-09-28T19:27:59.018Z,76.06
2022-09-28T19:30:26.976Z,75.90
2022-09-28T19:32:55.051Z,76.19
2022-09-28T19:35:23.065Z,76.07
2022-09-28T19:37:51.721Z,76.00
2022-09-28T19:40:19.860Z,76.07
2022-09-28T19:42:47.893Z,76.06
2022-09-28T19:45:16.212Z,76.07
2022-09-28T19:47:44.265Z,76.42
2022-09-28T19:50:12.250Z,76.42
2022-09-28T19:52:43.338Z,76.44
2022-09-28T19:55:11.293Z,76.35
2022-09-28T19:57:39.365Z,76.17
2022-09-28T20:00:07.872Z,76.38
2022-09-28T20:02:37.774Z,76.54
2022-09-28T20:05:05.848Z,76.88
2022-09-28T20:07:36.302Z,77.02
2022-09-28T20:10:04.522Z,76.95
2022-09-28T20:12:32.803Z,77.10
2022-09-28T20:15:00.742Z,76.61
2022-09-28T20:17:28.815Z,77.12
2022-09-28T20:19:57.703Z,77.17
2022-09-28T20:22:25.896Z,77.12
2022-09-28T20:24:54.040Z,77.07
2022-09-28T20:27:26.141Z,77.36
2022-09-28T20:29:54.576Z,77.38
2022-09-28T20:32:22.664Z,77.49
2022-09-28T20:34:50.800Z,77.32
2022-09-28T20:37:19.512Z,77.36
2022-09-28T20:39:47.593Z,77.44
2022-09-28T20:42:15.842Z,77.32
2022-09-28T20:44:44.076Z,77.61
2022-09-28T20:47:11.968Z,77.65
2022-09-28T20:49:39.871Z,77.81
2022-09-28T20:52:07.887Z,78.13
2022-09-28T20:54:35.989Z,78.38
2022-09-28T20:57:17.393Z,78.26
2022-09-28T20:59:53.769Z,78.27
2022-09-28T21:02:23.200Z,78.25
2022-09-28T21:04:51.284Z,78.25
2022-09-28T21:07:19.358Z,78.74
2022-09-28T21:09:47.436Z,78.35
2022-09-28T21:12:15.683Z,78.26
2022-09-28T21:14:43.794Z,78.48
2022-09-28T21:17:11.867Z,78.56
2022-09-28T21:19:39.816Z,78.46
2022-09-28T21:22:07.785Z,78.49
2022-09-28T21:24:35.960Z,78.63
2022-09-28T21:27:04.091Z,78.79
2022-09-28T21:29:32.126Z,79.00
2022-09-28T21:32:00.315Z,79.04
2022-09-28T21:34:28.334Z,78.87
2022-09-28T21:36:56.323Z,78.92
2022-09-28T21:39:24.420Z,78.98
2022-09-28T21:41:52.455Z,79.05
2022-09-28T21:44:20.567Z,79.28
2022-09-28T21:46:49.027Z,79.33
2022-09-28T21:49:16.984Z,79.48
2022-09-28T21:51:47.211Z,79.30
2022-09-28T21:54:15.864Z,79.36
2022-09-28T21:56:44.011Z,79.47
2022-09-28T21:59:12.208Z,79.59
2022-09-28T22:01:42.924Z,79.49
2022-09-28T22:04:11.129Z,79.52
2022-09-28T22:06:39.919Z,79.54
2022-09-28T22:09:08.290Z,79.71
2022-09-28T22:11:36.806Z,79.82
2022-09-28T22:14:04.919Z,79.80
2022-09-28T22:16:33.080Z,79.79
2022-09-28T22:19:01.662Z,79.94
2022-09-28T22:21:32.082Z,79.98
2022-09-28T22:24:01.380Z,80.10
2022-09-28T22:26:31.919Z,80.14
2022-09-28T22:29:01.743Z,80.18
2022-09-28T22:31:31.269Z,80.52
2022-09-28T22:33:59.544Z,80.36
2022-09-28T22:36:28.372Z,80.14
2022-09-28T22:38:56.991Z,80.07
2022-09-28T22:41:25.437Z,80.24
2022-09-28T22:43:53.837Z,80.24
2022-09-28T22:46:26.811Z,80.07
2022-09-28T22:48:56.492Z,80.29
2022-09-28T22:51:25.557Z,80.30
2022-09-28T22:53:53.692Z,80.60
2022-09-28T22:56:21.679Z,80.42
2022-09-28T22:58:49.654Z,80.40
2022-09-28T23:01:22.201Z,80.57
2022-09-28T23:03:51.015Z,80.42
2022-09-28T23:06:19.900Z,80.41
2022-09-28T23:08:48.417Z,80.61
2022-09-28T23:11:16.621Z,80.60
2022-09-28T23:13:51.776Z,80.77
2022-09-28T23:16:20.317Z,80.61
2022-09-28T23:18:49.338Z,80.61
2022-09-28T23:21:18.572Z,80.60
2022-09-28T23:23:47.144Z,80.61
2022-09-28T23:26:16.752Z,80.67
2022-09-28T23:28:45.021Z,80.70
2022-09-28T23:31:15.203Z,80.84
2022-09-28T23:33:43.300Z,80.74
2022-09-28T23:36:11.802Z,80.88
2022-09-28T23:38:39.767Z,81.00
2022-09-28T23:41:08.026Z,80.97
2022-09-28T23:43:36.356Z,81.01
2022-09-28T23:46:04.798Z,80.97
2022-09-28T23:48:33.542Z,80.96
2022-09-28T23:51:02.137Z,80.90
2022-09-28T23:53:32.383Z,81.16
2022-09-28T23:56:00.749Z,81.37
2022-09-28T23:58:28.776Z,81.35
